Airfield :
LOGIN :

Register | Disclaimer

   EN    FR    IT 

 










Legend :    VFR   Marginal VFR   IFR   Intensive IFR   Very Intensive IFR
Visi :
Ceiling :
>= 8 km
>= 3000ft
5 to 8 km
1000 to 3000 ft
1500m to 5 km
500 to 1000 ft
800 to 1500m
200 to 500 ft
< 800m
< 200 ft
Symbols :   Thunderstorms  Fog  Heavy snow  Heavy precipitations  Wind > 20 kt
SIGMETs :     Misc.  Thunderstorms  Icing  Turbulence  Mountain Waves  Volcanic Ashes







- Airport Elevation : 374 ft
- IATA code : LIS


LPPT - Lisboa Portela

CURRENT METAR :
  • 160730Z 32009KT 9999 FEW008 19/16 Q1017

EXPIRED METARs :
  • 160700Z 32007KT 290V350 9999 FEW008 18/16 Q1017
  • 160630Z 32009KT 9999 FEW006 18/16 Q1016
  • 160600Z 32008KT 290V350 9000 FEW005 18/16 Q1016
  • 160530Z 32009KT 280V340 CAVOK 18/16 Q1016
  • 160500Z 32010KT 290V350 CAVOK 17/16 Q1016

TAF TAF LPPT
Valid from the 16 at 06:00 until the 17 at 12:00 UTC


160500Z 1606/1712 32005KT 9999 FEW015
PROB30
TEMPO 1606/1609 5000 BR BKN008
BECMG 1612/1615 34015KT CAVOK
TEMPO 1617/1621 34018G28KT
BECMG 1621/1624 35010KT
No reported NOTAMs for that airfield.



MET'MAP, your aeronautical weather chart ! - Copyright ORBIFLY December 2007 - Disclaimer

ORBIFLY MET'MAP TEAM :

Programming & Development : Alexandra Zaïnal
Concept & Development : Baudouin d'Aumeries
Co-Development & Prog : Marc-Olivier Méhu
Technical & hardware support : Manuel Goepfert

Contact : metmap@orbifly.com




SOURCES & CREDITS :

   NOAA